View Sortable Currents For Network
ASOSAWOSCoCoRaHSCOOPDCPISUSM
SchoolNetOtherSCANMy FavoritesBy StateRWIS
RWIS SurfaceRWIS TrafficRWIS SoilBy NWS WFOUSCRN

Other Networks: West Texas MesonetKentucky MesonetIEM Misc StationsVermont Weather Analytics Center
Times shown are for timezone: America/Chicago. The local day summary is based on that timezone.
Sorted by: (Station ID)     Click on a column to sort it.

ADD: Station: Ob Time Temps °F   Wind [knots]
Air (Hi / Lo) DewP Feels RH% Speed Direction Gust @Time
Adrian 6WSW01:30 AM 58(58/56) 46 55 63 15 190 15@ 01:20 AM
LAKE_ALAN_HENRY01:30 AM 64(65/63) 63 65 97 4 80 5@ 01:20 AM
Aiken 3WSW01:30 AM 56(57/56) 53 55 92 6 160 9@ 12:45 AM
Amarillo 7SSE01:30 AM 55(58/55) 49 53 79 6 170 10@ 12:45 AM
Amarillo North01:30 AM 58(59/57) 50 56 76 7 160 10@ 12:30 AM
Amarillo 15NNW01:30 AM 59(64/59) 48 57 67 11 160 12@ 12:00 AM
AMHERST01:30 AM 59(59/55) 48 56 69 7 210 8@ 01:20 AM
ANDREWS01:30 AM 61(63/60) 47 58 61 5 220 5@ 12:05 AM
ANTON01:30 AM 55(57/55) 49 53 79 4 180 9@ 12:20 AM
ABERNATHY01:30 AM 56(59/56) 53 55 91 4 180 6@ 01:00 AM
ASPERMONT01:30 AM 66(66/65) 64 67 93 3 90 4@ 12:00 AM
San Angelo01:30 AM 67(67/66) 64 68 92 6 80 7@ 12:45 AM
Big Lake 1WNW01:30 AM 61(65/61) 56 61 85 5 170 5@ 01:15 AM
Bootleg 11WNW01:30 AM 57(58/56) 45 54 63 12 190 12@ 12:50 AM
BROWNFLD01:30 AM 59(62/58) 48 57 68 5 190 6@ 12:30 AM
Boys Ranch 1WSW01:30 AM 59(64/57) 46 56 64 4 30 4@ 12:35 AM
Canadian 6E01:30 AM 62(62/62) 62 63 100 11 170 11@ 01:30 AM
CLARENDON01:30 AM 64(64/62) 61 64 90 11 160 12@ 01:05 AM
Fort Chadbourne01:30 AM 66(66/66) 66 68 100 3 150 4@ 12:00 AM
Claude 12SW01:30 AM 60(62/60) 52 58 75 4 180 7@ 12:15 AM
Clyde 2WNW01:30 AM 66(66/66) 65 67 99 3 110 5@ 01:15 AM
Coyanosa 2 N01:30 AM 60(62/60) 53 58 78 7 190 7@ 12:00 AM
Colorado City 5NW01:30 AM 62(64/62) 61 63 97 6 110 7@ 01:05 AM
Crowell 1E01:30 AM 69(70/69) 66 71 89 2 140 6@ 12:00 AM
Crane 1NNW01:30 AM 59(62/59) 55 59 85 2 70 6@ 12:30 AM
Childress 2NNE01:30 AM 64(64/64) 62 65 95 9 160 9@ 12:05 AM
Dell City 1 N12:30 AM 57(57/57) 50 55 77 3 250 5@ 12:05 AM
DIMMITT01:30 AM 55(56/55) 47 52 75 7 190 9@ 12:20 AM
Dozier 3W01:30 AM 63(63/62) 63 64 100 4 110 4@ 12:05 AM
2 SW Dora12:30 AM 55(58/55) 42 51 62 6 200 9@ 12:20 AM
DENVER_CITY01:30 AM 56(57/55) 44 53 64 7 180 7@ 01:30 AM
Earth 9WSW01:30 AM 56(57/53) 48 54 75 8 180 10@ 12:55 AM
Endee12:30 AM 64(64/59) 45 61 50 12 190 12@ 12:30 AM
Estelline 3SSE01:30 AM 66(66/64) 64 67 96 6 160 9@ 12:00 AM
FRIONA01:30 AM 53(57/53) 47 50 80 7 190 8@ 12:00 AM
Fort Lewis12:30 AM 56(56/55) 35 51 46 6 360 6@ 12:05 AM
FLOYDADA01:30 AM 59(60/59) 57 59 94 6 150 8@ 12:45 AM
Fritch 1WNW01:30 AM 62(67/62) 51 60 66 8 190 13@ 12:00 AM
FLUVANNA01:30 AM 61(62/61) 58 61 91 5 130 6@ 12:00 AM
GOODLETT01:30 AM 65(65/64) 63 66 92 2 190 4@ 12:00 AM
GAIL01:30 AM 59(60/58) 54 83 0 0 3@ 12:00 AM
GRAHAM01:30 AM 65(68/65) 56 64 73 4 120 6@ 12:05 AM
Goodnight01:30 AM 60(61/59) 60 61 100 7 150 10@ 12:05 AM
Pine Springs GMNP01:30 AM 62(62/58) 39 58 43 3 340 7@ 01:05 AM
Haskell 1NW01:30 AM 67(68/67) 64 69 89 4 100 5@ 12:45 AM
Happy01:30 AM 53(54/53) 50 51 89 5 210 8@ 12:50 AM
HEREFORD01:30 AM 55(60/55) 46 52 70 6 190 9@ 12:00 AM
Hobbs 5NW12:30 AM 59(59/59) 45 55 61 3 180 3@ 12:05 AM
HART01:30 AM 55(56/54) 49 53 80 5 170 5@ 12:00 AM
JAYTON01:30 AM 65(65/65) 63 66 95 7 120 9@ 01:05 AM
Junction 1SSW01:30 AM 63(65/63) 63 100 0 0 2@ 12:50 AM
Knox City 3NW01:30 AM 69(69/69) 65 71 88 2 140 2@ 12:00 AM
Fort Lancaster01:30 AM 60(64/60) 59 98 0 0 2@ 12:00 AM
LBB_W_MICRONET01:30 AM 61(61/57) 52 59 73 3 150 5@ 12:45 AM
LEVELLAND01:30 AM 54(56/54) 47 51 77 7 180 8@ 12:35 AM
Leslie 2S01:30 AM 65(65/62) 64 66 98 7 110 7@ 01:30 AM
LAMESA01:30 AM 58(61/58) 50 56 74 2 110 4@ 12:00 AM
Lomax 1SSE01:30 AM 56(58/56) 53 55 88 1 200 5@ 12:00 AM
Fort McKavett01:30 AM 63(64/63) 63 65 100 2 100 2@ 12:15 AM
McCamey 1SSW01:30 AM 61(65/61) 55 60 81 1 130 2@ 12:30 AM
MCLEAN01:30 AM 62(62/62) 61 63 95 8 150 14@ 12:00 AM
Menard 2NW01:30 AM 64(67/64) 64 66 100 1 90 2@ 12:00 AM
Mertzon 3NNE01:30 AM 59(61/59) 59 100 0 0 2@ 01:15 AM
MEMPHIS01:30 AM 65(65/62) 63 66 92 4 120 4@ 01:30 AM
MORTON01:30 AM 55(59/55) 48 53 78 6 190 6@ 12:00 AM
MULESHOE01:30 AM 55(59/55) 50 53 80 4 210 9@ 12:00 AM
New Home01:30 AM 60(61/59) 52 59 73 5 160 5@ 12:55 AM
1 S Northfield01:30 AM 64(65/64) 63 66 94 10 140 10@ 01:30 AM
4 ENE Odel01:30 AM 68(70/68) 66 70 94 5 80 9@ 12:30 AM
ODONNELL01:30 AM 61(63/60) 53 60 77 4 160 7@ 12:15 AM
OLTON01:30 AM 54(56/54) 48 51 80 6 190 9@ 12:00 AM
Panhandle 1SSW01:30 AM 57(58/57) 56 57 96 6 160 11@ 12:35 AM
PADUCAH01:30 AM 65(65/65) 63 66 93 7 160 7@ 12:35 AM
Palo Duro Canyon SP01:30 AM 59(61/58) 50 56 73 5 190 6@ 12:00 AM
Canyon 16ESE01:30 AM 55(58/54) 51 53 86 2 360 2@ 01:15 AM
Palo Duro 4E01:30 AM 54(56/54) 53 53 99 1 330 2@ 12:00 AM
GUTHRIE01:30 AM 65(65/65) 62 66 91 7 140 9@ 12:35 AM
Persimmon Gap01:30 AM 71(72/69) 50 69 47 11 10 11@ 01:30 AM
PAMPA01:30 AM 60(60/58) 60 61 98 12 150 13@ 01:20 AM
PLAINS01:30 AM 56(57/56) 46 53 70 6 160 6@ 12:00 AM
POST01:30 AM 62(65/62) 55 61 76 2 320 3@ 12:50 AM
PLAINVIEW01:30 AM 57(62/57) 53 56 86 3 190 8@ 12:05 AM
Quitaque01:30 AM 58(61/58) 56 58 91 5 190 7@ 12:20 AM
REESE01:30 AM 57(60/57) 48 54 72 3 150 4@ 12:00 AM
RALLS01:30 AM 58(61/58) 54 57 86 6 110 7@ 12:15 AM
Rotan 5W01:30 AM 66(66/65) 65 67 98 5 110 7@ 01:20 AM
RNG_SPNGS01:30 AM 63(63/62) 62 64 96 7 170 10@ 01:15 AM
Sierra Blanca12:30 AM 67(69/67) 44 43 0 0 2@ 12:20 AM
Sterling City01:30 AM 61(61/59) 61 62 101 3 70 3@ 12:00 AM
SUNDOWN01:30 AM 54(55/53) 47 52 75 8 170 8@ 01:05 AM
Seymour 3NW01:30 AM 68(68/68) 65 69 90 2 130 5@ 12:00 AM
SEAGRAVES01:30 AM 54(58/54) 51 53 89 3 160 3@ 12:15 AM
SLATON01:30 AM 58(61/58) 53 57 85 5 110 7@ 12:05 AM
SEMINOLE01:30 AM 57(62/56) 49 55 74 1 140 4@ 12:30 AM
SPUR01:30 AM 64(65/63) 62 65 91 4 130 4@ 01:05 AM
St Lawrence01:30 AM 59(61/59) 54 58 82 5 170 6@ 12:20 AM
Stamford 5ESE01:30 AM 68(69/68) 65 69 89 4 100 6@ 12:20 AM
Stinnett 1NNW01:30 AM 58(63/58) 52 56 80 7 210 10@ 12:35 AM
SILVERTON01:30 AM 57(58/55) 52 55 84 7 160 7@ 12:00 AM
Sweetwater 11SW01:30 AM 64(65/63) 64 66 100 6 140 8@ 12:45 AM
SNYDER01:30 AM 62(63/62) 61 63 96 5 110 7@ 12:00 AM
Tarzan 2WNW01:30 AM 61(63/60) 48 59 62 3 140 4@ 12:00 AM
TAHOKA01:30 AM 57(60/57) 53 56 85 5 160 7@ 12:15 AM
2 SW Tatum12:30 AM 48(49/48) 42 44 81 7 210 9@ 12:05 AM
Throckmorton 1SW01:30 AM 67(67/67) 66 69 98 1 130 3@ 12:05 AM
TULIA01:30 AM 56(58/56) 51 54 82 6 180 8@ 12:35 AM
Turkey 2WSW01:30 AM 60(63/60) 59 61 96 6 110 7@ 12:20 AM
Umbarger 3NEE01:30 AM 55(60/55) 47 53 73 10 200 10@ 12:05 AM
Van Horn 3ENE01:30 AM 61(64/61) 50 58 67 5 250 6@ 12:55 AM
Vigo Park01:15 AM 54(55/54) 51 53 90 7 170 8@ 12:30 AM
Wall 1E01:30 AM 65(65/64) 64 66 99 4 100 5@ 12:20 AM
Weinert 2NNE01:30 AM 68(68/68) 66 69 92 4 120 4@ 12:05 AM
Welch01:30 AM 57(59/56) 53 56 86 1 180 4@ 12:30 AM
WOLFFORTH01:30 AM 57(59/57) 50 55 79 4 170 6@ 12:00 AM
Snyder South01:30 AM 62(64/62) 62 63 99 2 120 3@ 12:00 AM
W_RVR_LK01:30 AM 63(64/62) 60 63 90 4 90 5@ 12:00 AM